createdAt,value
2023-03-29T00:00:00.800Z,7.25
2023-03-29T00:10:05.061Z,7.23
2023-03-29T00:20:11.134Z,7.22
2023-03-29T00:30:14.524Z,7.20
2023-03-29T00:40:17.146Z,7.18
2023-03-29T00:50:31.896Z,7.16
2023-03-29T01:00:41.012Z,7.13
2023-03-29T01:11:05.790Z,7.11
2023-03-29T01:21:22.070Z,7.17
2023-03-29T01:31:31.341Z,7.16
2023-03-29T01:42:15.796Z,7.19
2023-03-29T01:52:25.649Z,7.25
2023-03-29T02:02:31.245Z,7.23
2023-03-29T02:12:34.265Z,7.19
2023-03-29T02:22:43.102Z,7.16
2023-03-29T02:33:02.282Z,7.10
2023-03-29T02:43:08.068Z,7.08
2023-03-29T02:53:19.667Z,7.19
2023-03-29T03:03:22.374Z,7.18
2023-03-29T03:13:25.081Z,7.09
2023-03-29T03:23:29.202Z,7.00
2023-03-29T03:33:31.865Z,6.88
2023-03-29T03:43:34.425Z,6.78
2023-03-29T03:53:37.507Z,6.76
2023-03-29T04:03:40.086Z,6.75
2023-03-29T04:13:42.667Z,6.73
2023-03-29T04:23:46.843Z,6.70
2023-03-29T04:33:49.269Z,6.73
2023-03-29T04:43:52.398Z,6.71
2023-03-29T04:53:54.915Z,6.64
2023-03-29T05:03:57.516Z,6.59
2023-03-29T05:14:03.531Z,6.59
2023-03-29T05:24:06.565Z,6.57
2023-03-29T05:34:09.079Z,6.56
2023-03-29T05:44:11.518Z,6.59
2023-03-29T05:54:15.426Z,6.60
2023-03-29T06:04:18.414Z,6.64
2023-03-29T06:14:23.656Z,6.71
2023-03-29T06:24:26.277Z,6.81
2023-03-29T06:34:28.749Z,6.99
2023-03-29T06:44:31.197Z,7.24
2023-03-29T06:54:34.102Z,7.48
2023-03-29T07:04:36.661Z,7.77
2023-03-29T07:14:40.292Z,8.04
2023-03-29T07:24:42.846Z,8.30
2023-03-29T07:34:46.806Z,8.49
2023-03-29T07:44:49.679Z,8.72
2023-03-29T07:54:52.172Z,8.97
2023-03-29T08:04:55.132Z,9.23
2023-03-29T08:14:57.998Z,9.47
2023-03-29T08:25:00.763Z,9.65
2023-03-29T08:35:05.486Z,10.03
2023-03-29T08:45:23.497Z,10.62
2023-03-29T08:55:47.926Z,11.05
2023-03-29T09:05:59.831Z,11.54
2023-03-29T09:16:13.966Z,11.90
2023-03-29T09:26:34.656Z,12.11
2023-03-29T09:37:04.310Z,12.50
2023-03-29T09:47:19.190Z,12.82
2023-03-29T09:57:21.905Z,12.81
2023-03-29T10:07:24.816Z,13.30
2023-03-29T10:17:29.910Z,14.37
2023-03-29T10:27:36.721Z,15.43
2023-03-29T10:37:50.650Z,16.08
2023-03-29T10:48:01.108Z,17.11
2023-03-29T10:58:16.719Z,18.07
2023-03-29T11:08:32.979Z,18.47
2023-03-29T11:18:35.759Z,18.72
2023-03-29T11:28:44.928Z,19.09
2023-03-29T11:38:50.583Z,19.63
2023-03-29T11:49:02.987Z,20.18
2023-03-29T11:59:15.241Z,20.38
2023-03-29T12:09:41.806Z,19.76
2023-03-29T12:19:53.930Z,19.84
2023-03-29T12:30:17.871Z,20.23
2023-03-29T12:40:23.261Z,20.12
2023-03-29T12:50:37.804Z,19.51
2023-03-29T13:00:40.329Z,19.12
2023-03-29T13:10:43.468Z,19.21
2023-03-29T13:20:53.406Z,19.83
2023-03-29T13:31:13.749Z,20.36
2023-03-29T13:41:41.297Z,20.82
2023-03-29T13:52:03.310Z,20.90
2023-03-29T14:02:06.807Z,21.71
2023-03-29T14:12:14.331Z,22.13
2023-03-29T14:22:21.228Z,22.52
2023-03-29T14:42:34.127Z,21.73
2023-03-29T14:52:37.471Z,21.59
2023-03-29T15:02:50.531Z,21.72
2023-03-29T15:12:54.131Z,21.59
2023-03-29T15:23:01.775Z,20.91
2023-03-29T15:33:16.788Z,20.67
2023-03-29T15:43:22.042Z,20.45
2023-03-29T15:53:24.786Z,20.13
2023-03-29T16:03:30.131Z,19.66
2023-03-29T16:13:32.832Z,19.30
2023-03-29T16:23:35.805Z,19.12
2023-03-29T16:33:38.785Z,18.80
2023-03-29T16:43:41.162Z,18.27
2023-03-29T16:53:44.345Z,17.83
2023-03-29T17:03:47.325Z,17.46
2023-03-29T17:13:50.605Z,17.06
2023-03-29T17:23:53.082Z,16.59
2023-03-29T17:33:55.540Z,16.13
2023-03-29T17:43:58.221Z,15.74
2023-03-29T17:54:00.941Z,15.41
2023-03-29T18:04:03.528Z,15.05
2023-03-29T18:14:06.064Z,14.55
2023-03-29T18:24:09.197Z,14.14
2023-03-29T18:34:12.621Z,13.86
2023-03-29T18:44:15.998Z,13.59
2023-03-29T18:54:19.068Z,13.38
2023-03-29T19:04:21.667Z,13.21
2023-03-29T19:14:25.722Z,13.08
2023-03-29T19:24:28.553Z,13.02
2023-03-29T19:34:31.423Z,12.97
2023-03-29T19:44:34.875Z,13.02
2023-03-29T19:54:37.841Z,12.94
2023-03-29T20:04:41.249Z,12.96
2023-03-29T20:14:44.058Z,12.90
2023-03-29T20:24:46.825Z,12.84
2023-03-29T20:34:49.469Z,12.64
2023-03-29T20:44:54.158Z,12.45
2023-03-29T20:54:56.583Z,12.29
2023-03-29T21:05:00.746Z,12.18
2023-03-29T21:15:04.390Z,12.03
2023-03-29T21:25:10.056Z,11.97
2023-03-29T21:35:12.823Z,11.89
2023-03-29T21:45:15.206Z,11.83
2023-03-29T21:55:18.444Z,11.73
2023-03-29T22:05:21.213Z,11.69
2023-03-29T22:15:28.803Z,11.67
2023-03-29T22:25:31.988Z,11.63
2023-03-29T22:35:36.351Z,11.58
2023-03-29T22:45:38.727Z,11.57
2023-03-29T22:55:41.740Z,11.50
2023-03-29T23:06:04.719Z,11.52
2023-03-29T23:16:07.761Z,11.49
2023-03-29T23:26:10.625Z,11.53
2023-03-29T23:36:15.672Z,11.50
2023-03-29T23:46:19.813Z,11.69
2023-03-29T23:56:23.294Z,12.13
